Blue Hill Falls, Maine
Current Conditions -  °F | °C
As of 2:15 AM on Sunday 26 Oct 2014 (Local Time) from KBHB Reporting Station
Overcast Overcast  
Wind Chill: 46°   Ceiling: 6000
Heat Index: 46°   Visibility: 10mi
Dew Point: 46°   Wind: 3mph
Humidity: 100%   Direction: 320°NW
Pressure: 29.42"   Gusts: NA
Location:  44.38°N, 68.57°W
Report Text: KBHB 260615Z AUTO 32003KT 10SM OVC060 08/08 A2942 RMK AO1
Loading
Personal Weather Stations






























Interactive Weather Map
Tropical Storm Tracking
New forecast layout! Learn more

10-Day Weather Forecast

Advertisements
Track Severe Weather on mobile